Terminal Aerodrome Forecast
Issued by NWS

Home | Current Version | Previous Version | Text Only | Print | Product List | Glossary On
Versions: 1 2 3 4 5 6 7 8 9 10 11 12 13 14 15 16 17 18 19 20 21 22 23 24 25 26 27 28 29 30 31 32 33 34 35 36 37 38 39 40 41 42 43 44
842
FTUS41 KBOX 262325
TAFFMH
TAF
KFMH 262325Z 2700/2724 11007KT P6SM VCSH OVC045
     FM270600 11005KT P6SM VCSH OVC020
     FM270900 10009KT P6SM -RA OVC008
     FM271200 13014G24KT 3SM -RA BR OVC008
     FM272100 18007KT 2SM -RA BR OVC008=

USA.gov is the U.S. government's official web portal to all federal, state and local government web resources and services.